createdAt,value
2019-03-11T00:01:43.512Z,49.50
2019-03-11T00:04:38.150Z,48.80
2019-03-11T00:07:32.825Z,49.60
2019-03-11T00:10:27.359Z,49.70
2019-03-11T00:13:22.598Z,47.70
2019-03-11T00:16:17.307Z,47.40
2019-03-11T00:19:11.745Z,47.40
2019-03-11T00:22:06.329Z,49.10
2019-03-11T00:25:00.740Z,49.20
2019-03-11T00:27:55.188Z,48.50
2019-03-11T00:30:49.613Z,48.30
2019-03-11T00:33:44.355Z,47.20
2019-03-11T00:36:38.722Z,48.40
2019-03-11T00:39:33.562Z,48.10
2019-03-11T00:42:28.557Z,47.70
2019-03-11T00:45:24.338Z,49.10
2019-03-11T00:48:19.129Z,48.50
2019-03-11T00:51:13.539Z,48.30
2019-03-11T00:54:08.502Z,48.50
2019-03-11T00:57:03.198Z,48.10
2019-03-11T00:59:57.587Z,49.00
2019-03-11T01:02:52.079Z,47.70
2019-03-11T01:05:46.537Z,48.40
2019-03-11T01:08:41.045Z,49.10
2019-03-11T01:11:35.809Z,48.10
2019-03-11T01:14:30.103Z,49.60
2019-03-11T01:17:24.697Z,48.10
2019-03-11T01:20:19.718Z,49.00
2019-03-11T01:23:14.170Z,50.40
2019-03-11T01:26:08.959Z,49.50
2019-03-11T01:29:03.815Z,48.50
2019-03-11T01:31:58.284Z,48.70
2019-03-11T01:34:53.152Z,49.90
2019-03-11T01:37:47.536Z,49.40
2019-03-11T01:40:42.104Z,49.50
2019-03-11T01:43:36.781Z,48.60
2019-03-11T01:46:31.296Z,49.80
2019-03-11T01:49:26.117Z,50.30
2019-03-11T01:52:20.480Z,49.90
2019-03-11T01:55:15.461Z,50.30
2019-03-11T01:58:10.313Z,49.50
2019-03-11T02:01:04.937Z,49.80
2019-03-11T02:03:59.787Z,49.40
2019-03-11T02:06:53.909Z,49.80
2019-03-11T02:09:48.234Z,49.20
2019-03-11T02:12:42.741Z,49.40
2019-03-11T02:15:37.715Z,49.80
2019-03-11T02:18:32.248Z,49.70
2019-03-11T02:21:27.099Z,49.30
2019-03-11T02:29:58.616Z,48.80
2019-03-11T02:32:53.900Z,48.80
2019-03-11T02:35:48.614Z,48.80
2019-03-11T02:38:43.436Z,48.50
2019-03-11T02:41:38.664Z,48.50
2019-03-11T02:44:33.357Z,48.60
2019-03-11T02:47:28.189Z,48.60
2019-03-11T02:50:22.943Z,48.60
2019-03-11T02:53:16.471Z,48.70
2019-03-11T02:56:11.626Z,48.70
2019-03-11T02:59:06.503Z,48.80
2019-03-11T03:02:22.170Z,48.70
2019-03-11T03:05:27.856Z,48.70
2019-03-11T03:08:22.720Z,48.50
2019-03-11T03:11:17.439Z,48.60
2019-03-11T03:14:12.215Z,48.70
2019-03-11T03:17:08.103Z,48.90
2019-03-11T03:20:02.575Z,48.50
2019-03-11T03:22:57.419Z,48.60
2019-03-11T03:25:51.992Z,48.60
2019-03-11T03:28:46.812Z,48.60
2019-03-11T03:31:40.973Z,48.60
2019-03-11T03:34:35.880Z,48.40
2019-03-11T03:37:32.309Z,48.60
2019-03-11T03:40:27.104Z,48.60
2019-03-11T03:43:23.076Z,48.90
2019-03-11T03:46:20.765Z,49.00
2019-03-11T03:49:16.278Z,49.10
2019-03-11T03:52:11.164Z,49.00
2019-03-11T03:55:06.326Z,49.00
2019-03-11T03:58:02.014Z,51.30
2019-03-11T04:00:57.091Z,49.90
2019-03-11T04:03:53.073Z,50.20
2019-03-11T04:06:48.276Z,50.80
2019-03-11T04:09:43.094Z,50.80
2019-03-11T04:12:38.073Z,50.40
2019-03-11T04:15:33.468Z,52.90
2019-03-11T04:18:31.278Z,52.40
2019-03-11T04:21:26.464Z,51.10
2019-03-11T04:24:21.777Z,53.10
2019-03-11T04:27:16.943Z,54.00
2019-03-11T04:30:14.632Z,51.10
2019-03-11T04:33:11.009Z,50.00
2019-03-11T04:36:06.037Z,53.80
2019-03-11T04:39:02.658Z,52.70
2019-03-11T04:41:58.500Z,50.50
2019-03-11T04:44:59.957Z,53.90
2019-03-11T04:47:55.296Z,50.70
2019-03-11T04:50:50.291Z,50.70
2019-03-11T04:56:36.469Z,54.00
2019-03-11T04:59:38.848Z,53.10
2019-03-11T05:02:34.410Z,52.30
2019-03-11T05:05:30.411Z,54.70
2019-03-11T05:08:38.886Z,53.60
2019-03-11T05:11:41.831Z,54.40
2019-03-11T05:14:37.649Z,55.00
2019-03-11T05:17:59.778Z,56.70
2019-03-11T05:21:00.782Z,56.50
2019-03-11T05:27:13.440Z,54.20
2019-03-11T05:30:12.995Z,54.90
2019-03-11T05:33:11.072Z,56.10
2019-03-11T05:36:13.489Z,54.90
2019-03-11T05:42:07.721Z,53.60
2019-03-11T05:45:04.418Z,50.30
2019-03-11T05:48:00.929Z,49.10
2019-03-11T05:50:58.786Z,47.90
2019-03-11T05:53:56.142Z,47.10
2019-03-11T05:57:14.940Z,46.10
2019-03-11T06:00:15.222Z,45.70
2019-03-11T06:03:11.681Z,45.40
2019-03-11T06:06:13.109Z,44.60
2019-03-11T06:09:11.503Z,44.20
2019-03-11T06:12:09.201Z,44.10
2019-03-11T06:15:07.760Z,43.80
2019-03-11T06:18:06.294Z,45.20
2019-03-11T06:21:36.124Z,47.00
2019-03-11T06:24:40.065Z,48.60
2019-03-11T06:27:37.031Z,48.10
2019-03-11T06:30:32.696Z,50.00
2019-03-11T06:33:32.650Z,46.80
2019-03-11T06:36:32.343Z,44.70
2019-03-11T06:39:29.313Z,47.10
2019-03-11T06:42:32.383Z,49.50
2019-03-11T06:48:31.109Z,49.50
2019-03-11T06:51:30.072Z,50.10
2019-03-11T06:54:26.580Z,50.60
2019-03-11T06:57:23.378Z,50.70
2019-03-11T07:00:27.400Z,52.00
2019-03-11T07:03:29.969Z,50.60
2019-03-11T07:06:27.960Z,52.50
2019-03-11T07:09:26.953Z,52.60
2019-03-11T07:15:38.662Z,50.40
2019-03-11T07:19:02.305Z,48.80
2019-03-11T07:25:34.744Z,47.00
2019-03-11T07:28:45.977Z,46.90
2019-03-11T07:31:46.884Z,46.70
2019-03-11T07:34:45.576Z,45.80
2019-03-11T07:37:42.630Z,45.60
2019-03-11T07:40:38.320Z,45.70
2019-03-11T07:44:02.247Z,45.30
2019-03-11T07:46:56.372Z,45.20
2019-03-11T07:49:52.314Z,44.90
2019-03-11T07:52:47.691Z,46.00
2019-03-11T07:55:51.100Z,45.50
2019-03-11T07:58:51.781Z,45.00
2019-03-11T08:01:48.702Z,45.10
2019-03-11T08:10:22.684Z,45.90
2019-03-11T08:13:24.563Z,45.80
2019-03-11T08:19:15.467Z,45.00
2019-03-11T08:22:10.735Z,45.40
2019-03-11T08:25:05.492Z,46.90
2019-03-11T08:28:01.573Z,47.10
2019-03-11T08:30:56.841Z,47.70
2019-03-11T08:33:51.924Z,47.70
2019-03-11T08:36:47.058Z,48.20
2019-03-11T08:39:41.664Z,47.60
2019-03-11T08:45:29.325Z,48.10
2019-03-11T08:48:24.005Z,47.50
2019-03-11T08:51:24.552Z,48.20
2019-03-11T08:54:22.479Z,48.30
2019-03-11T08:57:17.246Z,48.20
2019-03-11T09:00:15.907Z,48.20
2019-03-11T09:03:15.203Z,47.90
2019-03-11T09:06:14.573Z,47.10
2019-03-11T09:09:11.734Z,46.70
2019-03-11T09:15:13.993Z,45.40
2019-03-11T09:18:08.535Z,45.80
2019-03-11T09:21:04.970Z,46.30
2019-03-11T09:24:01.015Z,45.60
2019-03-11T09:26:57.120Z,46.90
2019-03-11T09:29:53.036Z,50.70
2019-03-11T09:32:48.370Z,51.50
2019-03-11T09:36:02.448Z,52.60
2019-03-11T09:39:04.135Z,53.40
2019-03-11T09:42:04.213Z,53.40
2019-03-11T09:45:02.228Z,54.10
2019-03-11T09:47:59.850Z,54.40
2019-03-11T09:50:59.194Z,55.10
2019-03-11T09:53:58.861Z,54.60
2019-03-11T09:57:01.232Z,52.90
2019-03-11T09:59:58.526Z,51.50
2019-03-11T10:02:53.769Z,50.40
2019-03-11T10:05:54.677Z,49.30
2019-03-11T10:08:55.204Z,48.60
2019-03-11T10:11:50.658Z,48.00
2019-03-11T10:14:46.581Z,47.60
2019-03-11T10:17:42.993Z,47.00
2019-03-11T10:20:37.960Z,46.60
2019-03-11T10:23:38.329Z,46.20
2019-03-11T10:26:33.836Z,46.30
2019-03-11T10:29:33.344Z,46.10
2019-03-11T10:32:41.985Z,46.60
2019-03-11T10:35:43.236Z,46.60
2019-03-11T10:38:47.227Z,45.90
2019-03-11T10:42:26.387Z,45.80
2019-03-11T10:45:32.327Z,45.70
2019-03-11T10:49:45.890Z,45.40
2019-03-11T10:52:15.377Z,45.60
2019-03-11T10:55:40.935Z,45.20
2019-03-11T10:58:36.801Z,45.00
2019-03-11T11:01:52.297Z,45.20
2019-03-11T11:04:54.155Z,45.00
2019-03-11T11:07:51.394Z,45.00
2019-03-11T11:10:47.681Z,45.20
2019-03-11T11:13:42.750Z,45.30
2019-03-11T11:16:42.268Z,45.40
2019-03-11T11:19:35.670Z,45.50
2019-03-11T11:22:31.792Z,45.70
2019-03-11T11:25:27.685Z,45.40
2019-03-11T11:28:23.250Z,46.60
2019-03-11T11:31:18.398Z,51.70
2019-03-11T11:34:13.360Z,50.00
2019-03-11T11:37:08.409Z,48.40
2019-03-11T11:40:09.622Z,47.50
2019-03-11T11:43:06.900Z,46.90
2019-03-11T11:46:05.772Z,46.50
2019-03-11T11:49:44.340Z,46.10
2019-03-11T11:53:29.364Z,45.50
2019-03-11T11:56:29.832Z,45.60
2019-03-11T11:59:25.621Z,45.20
2019-03-11T12:02:24.300Z,44.70
2019-03-11T12:05:23.465Z,44.30
2019-03-11T12:08:29.988Z,44.30
2019-03-11T12:11:25.431Z,44.80
2019-03-11T12:15:42.262Z,44.50
2019-03-11T12:17:32.567Z,44.40
2019-03-11T12:20:28.597Z,44.30
2019-03-11T12:23:31.084Z,44.00
2019-03-11T12:26:25.695Z,44.00
2019-03-11T12:29:47.432Z,44.10
2019-03-11T12:33:15.709Z,44.10
2019-03-11T12:36:18.056Z,44.90
2019-03-11T12:39:15.688Z,44.40
2019-03-11T12:42:15.974Z,44.50
2019-03-11T12:45:12.840Z,44.60
2019-03-11T12:48:09.033Z,44.80
2019-03-11T12:51:06.709Z,45.00
2019-03-11T12:54:15.918Z,45.20
2019-03-11T12:57:11.362Z,45.40
2019-03-11T13:00:07.988Z,45.50
2019-03-11T13:03:03.730Z,45.70
2019-03-11T13:05:58.867Z,46.00
2019-03-11T13:08:54.108Z,46.20
2019-03-11T13:11:49.301Z,46.50
2019-03-11T13:14:44.639Z,46.70
2019-03-11T13:17:41.983Z,46.90
2019-03-11T13:20:37.670Z,47.10
2019-03-11T13:23:34.045Z,47.60
2019-03-11T13:26:29.762Z,47.80
2019-03-11T13:29:25.151Z,47.70
2019-03-11T13:32:19.849Z,47.80
2019-03-11T13:35:17.727Z,48.00
2019-03-11T13:38:13.687Z,48.20
2019-03-11T13:41:09.121Z,48.40
2019-03-11T13:44:07.075Z,48.60
2019-03-11T13:47:02.284Z,48.60
2019-03-11T13:49:57.827Z,48.80
2019-03-11T13:52:53.411Z,48.80
2019-03-11T13:55:53.612Z,48.90
2019-03-11T13:58:48.198Z,49.30
2019-03-11T14:01:42.777Z,49.20
2019-03-11T14:04:37.119Z,49.30
2019-03-11T14:07:31.747Z,49.30
2019-03-11T14:10:26.207Z,49.20
2019-03-11T14:13:22.181Z,49.50
2019-03-11T14:16:17.217Z,49.60
2019-03-11T14:19:11.964Z,49.70
2019-03-11T14:22:08.083Z,49.70
2019-03-11T14:25:04.543Z,49.70
2019-03-11T14:27:59.934Z,49.70
2019-03-11T14:30:55.583Z,49.90
2019-03-11T14:33:50.727Z,50.00
2019-03-11T14:39:33.372Z,50.00
2019-03-11T14:42:27.828Z,50.00
2019-03-11T14:45:22.715Z,50.10
2019-03-11T14:48:18.070Z,50.10
2019-03-11T14:51:13.523Z,50.10
2019-03-11T14:54:09.258Z,50.40
2019-03-11T14:57:04.366Z,50.30
2019-03-11T14:59:59.326Z,49.90
2019-03-11T15:02:54.206Z,50.40
2019-03-11T15:05:48.938Z,50.60
2019-03-11T15:08:43.603Z,50.50
2019-03-11T15:11:38.457Z,50.70
2019-03-11T15:14:33.844Z,50.60
2019-03-11T15:17:28.743Z,50.50
2019-03-11T15:20:23.615Z,50.70
2019-03-11T15:23:20.945Z,50.70
2019-03-11T15:26:24.964Z,50.50
2019-03-11T15:29:14.643Z,50.80
2019-03-11T15:32:09.651Z,50.90
2019-03-11T15:35:05.344Z,50.50
2019-03-11T15:38:00.589Z,50.80
2019-03-11T15:40:56.515Z,50.90
2019-03-11T15:43:51.777Z,50.60
2019-03-11T15:46:46.629Z,50.70
2019-03-11T15:49:41.685Z,50.90
2019-03-11T15:52:37.426Z,51.00
2019-03-11T15:55:32.541Z,50.80
2019-03-11T15:58:27.694Z,50.70
2019-03-11T16:01:22.672Z,50.80
2019-03-11T16:04:18.107Z,50.80
2019-03-11T16:07:13.158Z,50.90
2019-03-11T16:13:01.216Z,51.00
2019-03-11T16:15:57.755Z,50.90
2019-03-11T16:18:53.965Z,50.80
2019-03-11T16:21:48.455Z,50.80
2019-03-11T16:24:42.664Z,51.00
2019-03-11T16:27:37.387Z,51.00
2019-03-11T16:30:32.452Z,51.10
2019-03-11T16:33:27.796Z,51.00
2019-03-11T16:36:22.790Z,51.10
2019-03-11T16:39:17.404Z,51.30
2019-03-11T16:42:12.343Z,51.30
2019-03-11T16:45:07.523Z,51.30
2019-03-11T16:48:02.469Z,51.10
2019-03-11T16:50:59.544Z,51.30
2019-03-11T16:53:54.366Z,51.10
2019-03-11T16:56:49.761Z,51.30
2019-03-11T16:59:44.713Z,51.30
2019-03-11T17:02:39.693Z,51.30
2019-03-11T17:05:34.314Z,51.30
2019-03-11T17:08:29.605Z,51.30
2019-03-11T17:11:54.199Z,51.90
2019-03-11T17:14:53.270Z,52.80
2019-03-11T17:17:48.899Z,52.70
2019-03-11T17:20:43.857Z,53.10
2019-03-11T17:23:38.565Z,53.00
2019-03-11T17:26:34.179Z,53.00
2019-03-11T17:32:19.523Z,53.10
2019-03-11T17:35:14.558Z,53.30
2019-03-11T17:38:09.565Z,53.30
2019-03-11T17:41:04.448Z,53.20
2019-03-11T17:43:59.313Z,53.30
2019-03-11T17:46:53.934Z,53.30
2019-03-11T17:49:48.724Z,53.40
2019-03-11T17:52:44.433Z,53.60
2019-03-11T17:55:38.957Z,53.50
2019-03-11T17:58:33.471Z,53.50
2019-03-11T18:01:27.274Z,53.60
2019-03-11T18:04:23.247Z,53.60
2019-03-11T18:07:17.942Z,53.60
2019-03-11T18:10:12.564Z,53.70
2019-03-11T18:13:07.257Z,53.60
2019-03-11T18:16:03.864Z,53.80
2019-03-11T18:18:58.887Z,53.80
2019-03-11T18:21:53.692Z,53.80
2019-03-11T18:24:48.293Z,53.80
2019-03-11T18:27:42.941Z,53.80
2019-03-11T18:30:38.696Z,53.80
2019-03-11T18:33:33.333Z,54.30
2019-03-11T18:36:27.946Z,54.10
2019-03-11T18:39:22.899Z,54.10
2019-03-11T18:42:25.562Z,54.50
2019-03-11T18:45:13.640Z,54.00
2019-03-11T18:48:08.273Z,54.50
2019-03-11T18:51:10.824Z,54.00
2019-03-11T18:53:59.575Z,54.00
2019-03-11T18:56:55.573Z,54.00
2019-03-11T18:59:50.913Z,54.20
2019-03-11T19:02:45.696Z,54.10
2019-03-11T19:05:41.052Z,54.20
2019-03-11T19:08:36.539Z,54.20
2019-03-11T19:11:31.342Z,54.00
2019-03-11T19:14:26.202Z,54.00
2019-03-11T19:17:20.973Z,54.10
2019-03-11T19:23:09.286Z,54.20
2019-03-11T19:26:04.053Z,54.20
2019-03-11T19:29:00.338Z,54.30
2019-03-11T19:31:55.551Z,54.10
2019-03-11T19:34:50.978Z,54.20
2019-03-11T19:37:45.866Z,54.30
2019-03-11T19:40:42.438Z,54.20
2019-03-11T19:43:39.003Z,54.40
2019-03-11T19:46:34.876Z,54.40
2019-03-11T19:49:29.820Z,54.30
2019-03-11T19:52:24.445Z,54.40
2019-03-11T19:55:19.420Z,54.40
2019-03-11T20:01:05.284Z,54.50
2019-03-11T20:03:59.842Z,54.40
2019-03-11T20:06:54.513Z,54.60
2019-03-11T20:09:49.193Z,54.50
2019-03-11T20:12:44.032Z,54.50
2019-03-11T20:15:39.791Z,54.60
2019-03-11T20:18:34.880Z,54.90
2019-03-11T20:21:29.418Z,54.70
2019-03-11T20:24:24.278Z,54.60
2019-03-11T20:27:18.198Z,54.60
2019-03-11T20:30:16.960Z,54.70
2019-03-11T20:33:11.962Z,54.80
2019-03-11T20:36:20.344Z,54.80
2019-03-11T20:39:05.780Z,54.90
2019-03-11T20:42:01.836Z,54.70
2019-03-11T20:44:56.306Z,54.80
2019-03-11T20:47:51.214Z,54.70
2019-03-11T20:50:46.023Z,54.80
2019-03-11T20:53:42.640Z,55.00
2019-03-11T20:56:37.678Z,55.00
2019-03-11T20:59:33.119Z,54.90
2019-03-11T21:02:28.554Z,55.00
2019-03-11T21:05:25.258Z,55.00
2019-03-11T21:08:20.159Z,55.00
2019-03-11T21:11:14.633Z,55.30
2019-03-11T21:14:09.708Z,55.20
2019-03-11T21:17:04.971Z,55.40
2019-03-11T21:20:01.404Z,55.20
2019-03-11T21:22:58.770Z,56.30
2019-03-11T21:25:56.549Z,55.50
2019-03-11T21:28:51.335Z,55.20
2019-03-11T21:31:46.205Z,55.20
2019-03-11T21:34:40.908Z,55.50
2019-03-11T21:37:36.649Z,55.40
2019-03-11T21:40:31.391Z,55.60
2019-03-11T21:43:26.012Z,55.80
2019-03-11T21:46:20.507Z,55.40
2019-03-11T21:49:14.893Z,55.30
2019-03-11T21:52:07.713Z,55.40
2019-03-11T21:55:03.391Z,55.40
2019-03-11T21:57:58.563Z,55.40
2019-03-11T22:00:53.471Z,55.70
2019-03-11T22:03:48.141Z,55.50
2019-03-11T22:06:43.275Z,55.50
2019-03-11T22:09:39.704Z,55.50
2019-03-11T22:12:34.121Z,55.60
2019-03-11T22:15:28.822Z,56.00
2019-03-11T22:18:23.256Z,55.50
2019-03-11T22:21:17.788Z,55.60
2019-03-11T22:24:12.745Z,55.60
2019-03-11T22:27:07.344Z,55.50
2019-03-11T22:30:01.820Z,55.50
2019-03-11T22:32:56.946Z,55.60
2019-03-11T22:35:52.340Z,55.60
2019-03-11T22:38:47.775Z,55.60
2019-03-11T22:41:42.264Z,55.60
2019-03-11T22:44:37.318Z,56.40
2019-03-11T22:47:32.198Z,55.70
2019-03-11T22:50:26.927Z,55.80
2019-03-11T22:53:21.818Z,55.70
2019-03-11T22:56:16.541Z,55.70
2019-03-11T22:59:10.950Z,55.70
2019-03-11T23:02:06.016Z,55.80
2019-03-11T23:05:01.584Z,55.80
2019-03-11T23:07:58.287Z,55.90
2019-03-11T23:10:54.428Z,55.80
2019-03-11T23:13:48.837Z,55.80
2019-03-11T23:16:43.194Z,55.80
2019-03-11T23:19:37.859Z,55.80
2019-03-11T23:22:32.858Z,55.80
2019-03-11T23:25:27.530Z,55.80
2019-03-11T23:28:22.063Z,55.80
2019-03-11T23:31:16.599Z,55.80
2019-03-11T23:34:11.989Z,55.80
2019-03-11T23:37:06.581Z,55.80
2019-03-11T23:40:01.488Z,55.80
2019-03-11T23:42:56.316Z,55.70
2019-03-11T23:45:50.887Z,55.80
2019-03-11T23:48:45.587Z,55.70
2019-03-11T23:51:41.864Z,55.60
2019-03-11T23:54:37.642Z,55.70
2019-03-11T23:57:33.142Z,55.70
